Washington, Kansas
Current Conditions -  °F | °C
As of 2:15 AM on Sunday 26 Oct 2014 (Local Time) from KMYZ Reporting Station
Clear Clear  
Wind Chill: 61°   Ceiling: Unl
Heat Index: 61°   Visibility: 10mi
Dew Point: 50°   Wind: 13mph
Humidity: 68%   Direction: 120°ESE
Pressure: 29.92"   Gusts: 17mph
Location:  39.82°N, 97.05°W
Report Text: KMYZ 260715Z AUTO 12011G15KT 10SM CLR 16/10 A2992 RMK AO2
Loading
Personal Weather Stations






























Interactive Weather Map
Tropical Storm Tracking
New forecast layout! Learn more

10-Day Weather Forecast

Advertisements
Track Severe Weather on mobile